createdAt,value
2019-02-21T00:02:21.276Z,10.60
2019-02-21T00:04:49.712Z,10.97
2019-02-21T00:07:18.239Z,10.90
2019-02-21T00:09:46.665Z,9.83
2019-02-21T00:12:15.412Z,11.07
2019-02-21T00:14:43.952Z,10.90
2019-02-21T00:17:12.381Z,11.20
2019-02-21T00:19:40.814Z,10.60
2019-02-21T00:22:09.625Z,10.73
2019-02-21T00:24:39.939Z,11.10
2019-02-21T00:27:08.213Z,10.90
2019-02-21T00:29:36.670Z,10.57
2019-02-21T00:32:05.104Z,10.20
2019-02-21T00:34:33.601Z,10.60
2019-02-21T00:37:02.071Z,10.00
2019-02-21T00:39:30.602Z,13.90
2019-02-21T00:41:59.045Z,11.70
2019-02-21T00:44:27.751Z,11.00
2019-02-21T00:46:56.486Z,10.27
2019-02-21T00:49:24.926Z,11.60
2019-02-21T00:51:53.372Z,11.13
2019-02-21T00:54:22.129Z,12.40
2019-02-21T00:56:50.829Z,11.13
2019-02-21T00:59:19.303Z,13.20
2019-02-21T01:01:48.100Z,11.00
2019-02-21T01:04:16.525Z,11.57
2019-02-21T01:06:44.977Z,11.60
2019-02-21T01:09:13.573Z,11.63
2019-02-21T01:11:42.327Z,11.27
2019-02-21T01:14:10.854Z,11.63
2019-02-21T01:16:39.372Z,10.80
2019-02-21T01:19:07.801Z,11.10
2019-02-21T01:21:37.374Z,10.70
2019-02-21T01:24:05.802Z,11.83
2019-02-21T01:26:34.236Z,11.23
2019-02-21T01:29:02.709Z,10.33
2019-02-21T01:31:31.142Z,10.80
2019-02-21T01:34:19.108Z,10.60
2019-02-21T01:36:47.538Z,11.03
2019-02-21T01:39:15.968Z,11.07
2019-02-21T01:42:03.826Z,11.57
2019-02-21T01:44:32.250Z,9.50
2019-02-21T01:47:00.749Z,9.57
2019-02-21T01:49:29.316Z,10.47
2019-02-21T01:51:57.739Z,9.80
2019-02-21T01:54:26.169Z,10.03
2019-02-21T01:59:28.292Z,11.87
2019-02-21T02:01:56.725Z,10.20
2019-02-21T02:04:25.281Z,9.13
2019-02-21T02:07:33.623Z,9.60
2019-02-21T02:12:54.918Z,10.00
2019-02-21T02:15:23.398Z,8.93
2019-02-21T02:17:51.835Z,11.87
2019-02-21T02:20:20.393Z,10.73
2019-02-21T02:22:48.848Z,11.60
2019-02-21T02:25:17.318Z,11.73
2019-02-21T02:27:45.744Z,10.70
2019-02-21T02:30:33.403Z,10.47
2019-02-21T02:33:01.917Z,11.20
2019-02-21T02:35:49.696Z,11.17
2019-02-21T02:38:18.212Z,11.47
2019-02-21T02:40:46.643Z,12.10
2019-02-21T02:43:15.099Z,11.77
2019-02-21T02:45:43.526Z,11.97
2019-02-21T02:48:11.968Z,10.90
2019-02-21T02:50:40.432Z,10.43
2019-02-21T02:53:08.868Z,11.27
2019-02-21T02:55:37.657Z,10.87
2019-02-21T02:58:06.651Z,11.43
2019-02-21T03:00:36.281Z,12.83
2019-02-21T03:03:44.649Z,10.57
2019-02-21T03:06:53.280Z,11.80
2019-02-21T03:09:22.088Z,10.90
2019-02-21T03:11:51.958Z,10.67
2019-02-21T03:14:20.700Z,11.23
2019-02-21T03:16:49.474Z,13.00
2019-02-21T03:19:17.906Z,12.10
2019-02-21T03:21:46.345Z,10.70
2019-02-21T03:26:49.113Z,11.20
2019-02-21T03:29:17.571Z,10.57
2019-02-21T03:31:54.304Z,12.17
2019-02-21T03:34:35.433Z,12.00
2019-02-21T03:37:03.816Z,12.87
2019-02-21T03:39:32.245Z,12.23
2019-02-21T03:42:40.621Z,11.93
2019-02-21T03:45:48.993Z,12.50
2019-02-21T03:48:17.451Z,12.83
2019-02-21T03:50:45.887Z,11.57
2019-02-21T03:53:14.331Z,12.97
2019-02-21T03:55:42.819Z,14.40
2019-02-21T03:58:30.821Z,12.87
2019-02-21T04:00:59.530Z,12.00
2019-02-21T04:06:36.191Z,12.50
2019-02-21T04:09:44.595Z,12.70
2019-02-21T04:12:13.014Z,13.07
2019-02-21T04:15:00.626Z,11.03
2019-02-21T04:17:29.415Z,12.00
2019-02-21T04:19:58.206Z,12.30
2019-02-21T04:22:26.634Z,12.23
2019-02-21T04:24:55.198Z,11.07
2019-02-21T04:27:23.699Z,11.37
2019-02-21T04:30:11.361Z,11.67
2019-02-21T04:32:39.889Z,11.83
2019-02-21T04:35:27.754Z,11.27
2019-02-21T04:38:15.594Z,11.03
2019-02-21T04:40:44.054Z,11.93
2019-02-21T04:43:31.692Z,12.70
2019-02-21T04:46:00.141Z,11.13
2019-02-21T04:48:28.571Z,13.40
2019-02-21T04:50:57.092Z,12.97
2019-02-21T04:53:25.561Z,13.43
2019-02-21T04:55:54.096Z,14.10
2019-02-21T04:58:22.544Z,13.50
2019-02-21T05:00:51.015Z,14.27
2019-02-21T05:03:19.792Z,14.77
2019-02-21T05:05:48.226Z,12.60
2019-02-21T05:08:16.960Z,12.37
2019-02-21T05:10:45.409Z,12.50
2019-02-21T05:13:13.835Z,13.13
2019-02-21T05:15:42.295Z,14.77
2019-02-21T05:18:11.036Z,12.50
2019-02-21T05:20:39.465Z,11.80
2019-02-21T05:23:07.939Z,14.27
2019-02-21T05:25:36.377Z,13.40
2019-02-21T05:28:24.037Z,13.97
2019-02-21T05:31:11.841Z,13.73
2019-02-21T05:33:59.437Z,12.83
2019-02-21T05:37:06.323Z,11.10
2019-02-21T05:42:30.196Z,12.20
2019-02-21T05:45:19.122Z,14.50
2019-02-21T05:56:01.046Z,13.80
2019-02-21T05:58:48.853Z,13.17
2019-02-21T06:01:36.437Z,14.30
2019-02-21T06:04:23.991Z,14.70
2019-02-21T06:09:46.881Z,13.80
2019-02-21T06:15:42.957Z,14.10
2019-02-21T06:18:30.789Z,15.37
2019-02-21T06:23:53.918Z,15.17
2019-02-21T06:31:50.920Z,13.60
2019-02-21T06:34:19.371Z,15.00
2019-02-21T06:36:47.796Z,16.20
2019-02-21T06:39:16.264Z,15.27
2019-02-21T06:41:44.688Z,16.67
2019-02-21T06:44:13.123Z,15.90
2019-02-21T06:49:16.337Z,16.13
2019-02-21T06:51:44.795Z,17.13
2019-02-21T06:54:13.318Z,18.47
2019-02-21T06:56:41.755Z,16.37
2019-02-21T06:59:10.221Z,17.70
2019-02-21T07:01:38.762Z,18.23
2019-02-21T07:04:07.195Z,18.50
2019-02-21T07:06:35.653Z,17.33
2019-02-21T07:09:44.248Z,20.10
2019-02-21T07:12:12.802Z,16.00
2019-02-21T07:14:41.233Z,16.37
2019-02-21T07:17:29.310Z,17.07
2019-02-21T07:19:57.745Z,17.67
2019-02-21T07:22:26.173Z,15.70
2019-02-21T07:25:13.828Z,16.83
2019-02-21T07:27:42.318Z,15.57
2019-02-21T07:30:50.708Z,18.00
2019-02-21T07:33:27.955Z,15.33
2019-02-21T07:35:49.385Z,17.63
2019-02-21T07:38:37.096Z,17.70
2019-02-21T07:41:24.855Z,17.77
2019-02-21T07:43:53.327Z,15.93
2019-02-21T07:46:21.761Z,17.47
2019-02-21T07:48:50.529Z,19.10
2019-02-21T07:51:18.998Z,17.20
2019-02-21T07:53:47.426Z,17.00
2019-02-21T07:56:16.179Z,17.23
2019-02-21T07:58:45.074Z,18.97
2019-02-21T08:01:13.509Z,17.50
2019-02-21T08:03:45.873Z,19.17
2019-02-21T08:08:45.716Z,22.40
2019-02-21T08:11:14.436Z,23.40
2019-02-21T08:13:43.225Z,20.63
2019-02-21T08:16:12.492Z,20.27
2019-02-21T08:18:41.897Z,23.87
2019-02-21T08:24:03.503Z,23.30
2019-02-21T08:26:31.929Z,23.13
2019-02-21T08:29:00.502Z,21.30
2019-02-21T08:31:28.905Z,20.83
2019-02-21T08:36:46.452Z,20.53
2019-02-21T08:39:15.006Z,20.80
2019-02-21T08:42:02.740Z,20.50
2019-02-21T08:44:31.171Z,20.17
2019-02-21T08:46:59.703Z,20.97
2019-02-21T08:49:28.159Z,22.33
2019-02-21T08:51:56.914Z,23.30
2019-02-21T08:54:44.721Z,21.90
2019-02-21T08:57:13.146Z,24.50
2019-02-21T08:59:42.337Z,24.60
2019-02-21T09:05:05.664Z,27.30
2019-02-21T09:10:48.489Z,23.60
2019-02-21T09:13:16.952Z,23.30
2019-02-21T09:16:04.653Z,23.47
2019-02-21T09:18:33.116Z,22.73
2019-02-21T09:21:01.637Z,24.63
2019-02-21T09:23:30.167Z,23.10
2019-02-21T09:25:58.715Z,21.40
2019-02-21T09:28:27.149Z,23.43
2019-02-21T09:30:55.585Z,22.10
2019-02-21T09:33:24.149Z,20.90
2019-02-21T09:35:52.577Z,22.20
2019-02-21T09:38:21.027Z,22.17
2019-02-21T09:40:49.563Z,23.40
2019-02-21T09:43:18.003Z,23.53
2019-02-21T09:45:46.434Z,24.17
2019-02-21T09:48:14.908Z,23.70
2019-02-21T09:51:02.508Z,23.57
2019-02-21T09:56:04.830Z,23.77
2019-02-21T09:58:33.262Z,25.30
2019-02-21T10:01:01.815Z,23.30
2019-02-21T10:03:30.354Z,24.03
2019-02-21T10:06:18.254Z,22.43
2019-02-21T10:08:46.817Z,24.70
2019-02-21T10:11:15.245Z,23.83
2019-02-21T10:13:43.717Z,24.00
2019-02-21T10:16:31.345Z,23.57
2019-02-21T10:21:34.397Z,23.90
2019-02-21T10:24:22.155Z,24.20
2019-02-21T10:26:50.707Z,23.57
2019-02-21T10:29:19.136Z,24.33
2019-02-21T10:31:47.605Z,24.47
2019-02-21T10:34:16.070Z,24.10
2019-02-21T10:36:44.460Z,26.50
2019-02-21T10:41:47.328Z,25.13
2019-02-21T10:44:15.793Z,22.00
2019-02-21T10:46:44.330Z,23.37
2019-02-21T10:49:32.025Z,22.13
2019-02-21T10:52:00.456Z,24.30
2019-02-21T10:54:28.707Z,21.40
2019-02-21T10:59:52.570Z,22.73
2019-02-21T11:02:21.004Z,22.87
2019-02-21T11:04:54.715Z,22.27
2019-02-21T11:09:54.029Z,22.70
2019-02-21T11:12:22.532Z,22.10
2019-02-21T11:14:50.970Z,22.67
2019-02-21T11:17:19.431Z,22.90
2019-02-21T11:19:47.958Z,23.70
2019-02-21T11:22:16.680Z,22.30
2019-02-21T11:24:45.141Z,23.33
2019-02-21T11:27:33.207Z,23.13
2019-02-21T11:30:01.635Z,22.47
2019-02-21T11:32:30.157Z,21.73
2019-02-21T11:35:06.094Z,21.40
2019-02-21T11:37:29.381Z,24.63
2019-02-21T11:39:57.837Z,23.70
2019-02-21T11:42:26.289Z,24.03
2019-02-21T11:44:54.714Z,23.90
2019-02-21T11:47:23.897Z,23.70
2019-02-21T11:49:52.385Z,24.97
2019-02-21T11:52:40.000Z,22.17
2019-02-21T11:55:48.479Z,21.07
2019-02-21T11:58:16.922Z,21.10
2019-02-21T12:03:46.000Z,21.87
2019-02-21T12:06:14.447Z,22.13
2019-02-21T12:08:43.244Z,22.27
2019-02-21T12:11:11.833Z,22.50
2019-02-21T12:13:40.262Z,23.50
2019-02-21T12:16:08.780Z,23.47
2019-02-21T12:18:56.830Z,24.03
2019-02-21T12:21:25.396Z,22.80
2019-02-21T12:23:54.179Z,24.37
2019-02-21T12:26:41.916Z,22.43
2019-02-21T12:29:10.353Z,22.53
2019-02-21T12:31:58.346Z,24.00
2019-02-21T12:34:27.172Z,24.00
2019-02-21T12:37:14.998Z,24.07
2019-02-21T12:39:43.735Z,23.40
2019-02-21T12:42:12.193Z,23.70
2019-02-21T12:44:40.650Z,24.53
2019-02-21T12:47:09.085Z,22.40
2019-02-21T12:49:37.520Z,23.03
2019-02-21T12:52:05.995Z,21.60
2019-02-21T12:54:34.438Z,22.90
2019-02-21T12:57:02.970Z,21.20
2019-02-21T12:59:31.456Z,23.23
2019-02-21T13:02:00.210Z,23.30
2019-02-21T13:04:28.631Z,24.97
2019-02-21T13:06:57.133Z,24.67
2019-02-21T13:09:25.921Z,27.90
2019-02-21T13:11:54.363Z,25.00
2019-02-21T13:16:57.037Z,26.20
2019-02-21T13:19:25.586Z,26.10
2019-02-21T13:21:54.083Z,24.17
2019-02-21T13:24:22.615Z,27.40
2019-02-21T13:27:10.402Z,25.17
2019-02-21T13:29:46.031Z,27.43
2019-02-21T13:32:14.467Z,25.53
2019-02-21T13:34:43.046Z,25.97
2019-02-21T13:37:11.524Z,24.20
2019-02-21T13:39:39.973Z,22.47
2019-02-21T13:42:08.468Z,25.13
2019-02-21T13:44:36.900Z,24.43
2019-02-21T13:47:05.415Z,22.77
2019-02-21T13:52:07.558Z,23.57
2019-02-21T13:54:55.289Z,27.37
2019-02-21T13:57:24.117Z,25.90
2019-02-21T14:00:11.973Z,28.30
2019-02-21T14:02:40.412Z,24.67
2019-02-21T14:05:09.209Z,25.37
2019-02-21T14:10:52.250Z,22.77
2019-02-21T14:13:39.927Z,25.80
2019-02-21T14:16:08.439Z,23.53
2019-02-21T14:18:56.244Z,24.80
2019-02-21T14:21:24.810Z,23.33
2019-02-21T14:23:53.376Z,26.87
2019-02-21T14:28:55.935Z,23.53
2019-02-21T14:34:18.016Z,23.07
2019-02-21T14:36:46.803Z,22.90
2019-02-21T14:39:15.338Z,22.40
2019-02-21T14:41:44.122Z,21.30
2019-02-21T14:44:12.528Z,21.20
2019-02-21T14:46:41.065Z,19.30
2019-02-21T14:49:09.819Z,20.17
2019-02-21T14:51:38.290Z,20.00
2019-02-21T14:54:07.093Z,21.07
2019-02-21T14:56:35.533Z,21.00
2019-02-21T15:01:38.478Z,18.87
2019-02-21T15:04:26.302Z,18.80
2019-02-21T15:06:54.737Z,20.00
2019-02-21T15:09:23.274Z,17.73
2019-02-21T15:11:51.735Z,17.27
2019-02-21T15:14:20.171Z,18.90
2019-02-21T15:16:48.694Z,18.00
2019-02-21T15:21:51.030Z,19.73
2019-02-21T15:24:19.463Z,16.20
2019-02-21T15:29:22.307Z,17.53
2019-02-21T15:31:50.801Z,16.63
2019-02-21T15:34:19.227Z,17.50
2019-02-21T15:37:07.026Z,17.87
2019-02-21T15:39:35.471Z,17.73
2019-02-21T15:42:03.937Z,17.70
2019-02-21T15:47:25.394Z,17.33
2019-02-21T15:49:53.890Z,18.10
2019-02-21T15:52:41.771Z,16.53
2019-02-21T15:55:50.321Z,18.27
2019-02-21T15:58:38.099Z,16.83
2019-02-21T16:03:42.451Z,14.97
2019-02-21T16:06:29.954Z,14.17
2019-02-21T16:08:58.383Z,14.47
2019-02-21T16:11:26.863Z,12.60
2019-02-21T16:14:03.322Z,11.30
2019-02-21T16:16:25.644Z,12.93
2019-02-21T16:18:58.586Z,12.23
2019-02-21T16:21:26.189Z,12.90
2019-02-21T16:23:54.625Z,12.20
2019-02-21T16:26:23.062Z,11.70
2019-02-21T16:28:51.873Z,12.30
2019-02-21T16:31:20.665Z,11.40
2019-02-21T16:33:49.191Z,12.37
2019-02-21T16:36:17.761Z,13.47
2019-02-21T16:38:46.200Z,11.13
2019-02-21T16:41:14.799Z,12.23
2019-02-21T16:43:43.358Z,14.07
2019-02-21T16:46:11.887Z,16.43
2019-02-21T16:48:59.767Z,14.00
2019-02-21T16:51:28.289Z,14.80
2019-02-21T16:53:56.722Z,14.27
2019-02-21T16:56:26.641Z,14.37
2019-02-21T16:58:55.348Z,13.70
2019-02-21T17:01:23.781Z,15.33
2019-02-21T17:03:52.250Z,14.60
2019-02-21T17:06:20.686Z,14.77
2019-02-21T17:08:49.133Z,14.00
2019-02-21T17:11:17.602Z,14.20
2019-02-21T17:13:46.024Z,14.80
2019-02-21T17:16:14.552Z,15.90
2019-02-21T17:18:43.018Z,16.00
2019-02-21T17:21:11.553Z,15.77
2019-02-21T17:23:40.273Z,17.43
2019-02-21T17:26:08.760Z,15.60
2019-02-21T17:28:56.538Z,15.20
2019-02-21T17:31:25.280Z,15.43
2019-02-21T17:33:53.732Z,17.20
2019-02-21T17:39:15.707Z,16.93
2019-02-21T17:41:44.498Z,16.50
2019-02-21T17:44:12.963Z,16.17
2019-02-21T17:46:41.396Z,17.33
2019-02-21T17:49:09.956Z,14.33
2019-02-21T17:51:38.378Z,16.10
2019-02-21T17:54:27.788Z,14.80
2019-02-21T17:56:56.378Z,14.43
2019-02-21T17:59:24.814Z,16.10
2019-02-21T18:05:05.968Z,15.17
2019-02-21T18:07:36.643Z,15.00
2019-02-21T18:10:44.633Z,15.87
2019-02-21T18:13:13.106Z,16.33
2019-02-21T18:15:41.564Z,16.13
2019-02-21T18:18:09.973Z,14.90
2019-02-21T18:20:57.786Z,15.60
2019-02-21T18:23:26.224Z,15.03
2019-02-21T18:26:34.605Z,15.07
2019-02-21T18:29:22.389Z,18.63
2019-02-21T18:32:11.055Z,16.27
2019-02-21T18:34:58.822Z,16.17
2019-02-21T18:37:27.576Z,16.90
2019-02-21T18:40:18.479Z,17.03
2019-02-21T18:43:04.932Z,19.17
2019-02-21T18:45:52.858Z,16.50
2019-02-21T18:48:21.345Z,15.20
2019-02-21T18:53:37.246Z,16.93
2019-02-21T18:56:45.596Z,19.30
2019-02-21T18:59:14.067Z,18.27
2019-02-21T19:01:42.973Z,17.43
2019-02-21T19:04:11.790Z,17.67
2019-02-21T19:06:40.350Z,16.70
2019-02-21T19:09:48.710Z,18.67
2019-02-21T19:12:17.183Z,18.93
2019-02-21T19:14:45.686Z,19.10
2019-02-21T19:17:14.120Z,18.23
2019-02-21T19:20:02.077Z,18.13
2019-02-21T19:22:49.702Z,18.40
2019-02-21T19:25:37.567Z,18.40
2019-02-21T19:31:54.113Z,21.37
2019-02-21T19:34:22.614Z,16.20
2019-02-21T19:37:10.386Z,18.60
2019-02-21T19:39:58.003Z,18.60
2019-02-21T19:42:46.740Z,19.83
2019-02-21T19:48:22.118Z,18.03
2019-02-21T19:53:38.250Z,20.20
2019-02-21T19:56:06.854Z,19.50
2019-02-21T19:58:36.402Z,19.63
2019-02-21T20:01:05.177Z,18.20
2019-02-21T20:03:34.044Z,19.70
2019-02-21T20:06:03.266Z,19.33
2019-02-21T20:08:31.884Z,17.53
2019-02-21T20:11:00.534Z,17.83
2019-02-21T20:13:29.128Z,16.83
2019-02-21T20:15:57.999Z,19.37
2019-02-21T20:18:26.479Z,17.40
2019-02-21T20:20:55.211Z,18.03
2019-02-21T20:23:26.008Z,20.10
2019-02-21T20:25:54.816Z,17.73
2019-02-21T20:28:23.636Z,18.20
2019-02-21T20:30:52.667Z,17.63
2019-02-21T20:33:21.474Z,18.17
2019-02-21T20:35:50.015Z,17.50
2019-02-21T20:38:18.684Z,18.40
2019-02-21T20:40:47.150Z,18.80
2019-02-21T20:43:15.779Z,17.80
2019-02-21T20:45:52.642Z,17.70
2019-02-21T20:48:15.051Z,18.50
2019-02-21T20:50:44.037Z,18.07
2019-02-21T20:53:12.951Z,17.90
2019-02-21T20:55:43.824Z,17.23
2019-02-21T20:58:11.919Z,18.60
2019-02-21T21:00:41.136Z,19.50
2019-02-21T21:03:09.669Z,19.73
2019-02-21T21:05:38.542Z,19.50
2019-02-21T21:08:07.250Z,20.60
2019-02-21T21:10:36.046Z,20.43
2019-02-21T21:13:04.933Z,21.40
2019-02-21T21:15:33.630Z,21.70
2019-02-21T21:18:02.136Z,19.63
2019-02-21T21:20:30.705Z,19.67
2019-02-21T21:22:59.516Z,22.10
2019-02-21T21:25:27.948Z,19.77
2019-02-21T21:27:56.689Z,19.47
2019-02-21T21:30:25.417Z,20.60
2019-02-21T21:32:54.128Z,20.63
2019-02-21T21:35:22.922Z,21.87
2019-02-21T21:37:51.745Z,20.70
2019-02-21T21:40:21.212Z,20.43
2019-02-21T21:42:49.809Z,21.40
2019-02-21T21:45:21.372Z,20.53
2019-02-21T21:47:50.159Z,19.53
2019-02-21T21:50:20.012Z,19.27
2019-02-21T21:52:48.901Z,20.07
2019-02-21T21:55:17.608Z,21.70
2019-02-21T21:57:46.191Z,18.83
2019-02-21T22:00:18.322Z,20.67
2019-02-21T22:02:47.118Z,18.80
2019-02-21T22:05:15.906Z,20.27
2019-02-21T22:07:44.370Z,18.43
2019-02-21T22:10:14.045Z,17.67
2019-02-21T22:12:42.890Z,21.87
2019-02-21T22:15:14.755Z,22.30
2019-02-21T22:17:43.613Z,20.47
2019-02-21T22:20:12.447Z,18.07
2019-02-21T22:22:41.007Z,18.70
2019-02-21T22:25:14.217Z,18.50
2019-02-21T22:27:43.001Z,18.53
2019-02-21T22:30:14.461Z,19.03
2019-02-21T22:32:43.078Z,18.40
2019-02-21T22:35:11.924Z,18.57
2019-02-21T22:37:40.390Z,19.77
2019-02-21T22:40:11.545Z,20.00
2019-02-21T22:42:40.387Z,18.40
2019-02-21T22:45:10.320Z,17.30
2019-02-21T22:47:39.081Z,19.00
2019-02-21T22:50:13.138Z,19.60
2019-02-21T22:52:42.694Z,21.03
2019-02-21T22:55:11.525Z,19.13
2019-02-21T22:57:40.412Z,19.50
2019-02-21T23:00:31.584Z,19.40
2019-02-21T23:03:01.687Z,18.50
2019-02-21T23:05:45.061Z,16.90
2019-02-21T23:08:22.784Z,17.87
2019-02-21T23:10:51.250Z,18.83
2019-02-21T23:13:19.847Z,18.13
2019-02-21T23:15:48.348Z,17.63
2019-02-21T23:18:16.961Z,18.93
2019-02-21T23:20:45.664Z,18.40
2019-02-21T23:23:14.100Z,17.23
2019-02-21T23:25:42.906Z,18.30
2019-02-21T23:28:12.227Z,18.03
2019-02-21T23:30:40.662Z,16.70
2019-02-21T23:33:09.392Z,17.93
2019-02-21T23:35:37.827Z,17.40
2019-02-21T23:38:06.350Z,18.53
2019-02-21T23:40:37.071Z,19.80
2019-02-21T23:43:05.874Z,17.83
2019-02-21T23:45:34.574Z,21.07
2019-02-21T23:48:03.048Z,19.13
2019-02-21T23:50:32.325Z,18.30
2019-02-21T23:53:01.034Z,16.70
2019-02-21T23:55:29.670Z,15.97
2019-02-21T23:57:58.455Z,17.70
